sensor_id;sensor_type;location;lat;lon;timestamp;temperature;humidity
53752;DHT22;41095;53.090;6.692;2023-02-15T00:01:46;2.70;99.90
53752;DHT22;41095;53.090;6.692;2023-02-15T00:04:17;2.80;99.90
53752;DHT22;41095;53.090;6.692;2023-02-15T00:06:44;2.50;99.90
53752;DHT22;41095;53.090;6.692;2023-02-15T00:09:10;2.40;99.90
53752;DHT22;41095;53.090;6.692;2023-02-15T00:11:36;2.40;99.90
53752;DHT22;41095;53.090;6.692;2023-02-15T00:14:14;2.30;99.90
53752;DHT22;41095;53.090;6.692;2023-02-15T00:16:41;2.30;99.90
53752;DHT22;41095;53.090;6.692;2023-02-15T00:19:07;2.30;99.90
53752;DHT22;41095;53.090;6.692;2023-02-15T00:21:35;2.20;99.90
53752;DHT22;41095;53.090;6.692;2023-02-15T00:24:03;2.20;99.90
53752;DHT22;41095;53.090;6.692;2023-02-15T00:26:30;2.30;99.90
53752;DHT22;41095;53.090;6.692;2023-02-15T00:28:56;2.40;99.90
53752;DHT22;41095;53.090;6.692;2023-02-15T00:31:24;2.50;99.90
53752;DHT22;41095;53.090;6.692;2023-02-15T00:33:50;3.60;99.90
53752;DHT22;41095;53.090;6.692;2023-02-15T00:36:15;2.60;99.90
53752;DHT22;41095;53.090;6.692;2023-02-15T00:38:41;2.50;99.90
53752;DHT22;41095;53.090;6.692;2023-02-15T00:41:09;2.30;99.90
53752;DHT22;41095;53.090;6.692;2023-02-15T00:43:35;2.20;99.90
53752;DHT22;41095;53.090;6.692;2023-02-15T00:46:02;2.10;99.90
53752;DHT22;41095;53.090;6.692;2023-02-15T00:48:28;2.20;99.90
53752;DHT22;41095;53.090;6.692;2023-02-15T00:50:58;2.10;99.90
53752;DHT22;41095;53.090;6.692;2023-02-15T00:53:25;2.10;99.90
53752;DHT22;41095;53.090;6.692;2023-02-15T00:55:51;2.10;99.90
53752;DHT22;41095;53.090;6.692;2023-02-15T00:58:17;2.10;99.90
53752;DHT22;41095;53.090;6.692;2023-02-15T01:00:44;2.10;99.90
53752;DHT22;41095;53.090;6.692;2023-02-15T01:03:11;2.20;99.90
53752;DHT22;41095;53.090;6.692;2023-02-15T01:05:37;2.20;99.90
53752;DHT22;41095;53.090;6.692;2023-02-15T01:08:03;2.40;99.90
53752;DHT22;41095;53.090;6.692;2023-02-15T01:10:29;2.00;99.90
53752;DHT22;41095;53.090;6.692;2023-02-15T01:12:55;2.10;99.90
53752;DHT22;41095;53.090;6.692;2023-02-15T01:15:21;3.30;99.90
53752;DHT22;41095;53.090;6.692;2023-02-15T01:17:47;2.60;99.90
53752;DHT22;41095;53.090;6.692;2023-02-15T01:20:18;2.70;99.90
53752;DHT22;41095;53.090;6.692;2023-02-15T01:22:44;2.10;99.90
53752;DHT22;41095;53.090;6.692;2023-02-15T01:25:10;2.10;99.90
53752;DHT22;41095;53.090;6.692;2023-02-15T01:27:36;2.10;99.90
53752;DHT22;41095;53.090;6.692;2023-02-15T01:30:02;2.90;99.90
53752;DHT22;41095;53.090;6.692;2023-02-15T01:32:30;2.10;99.90
53752;DHT22;41095;53.090;6.692;2023-02-15T01:34:56;1.90;99.90
53752;DHT22;41095;53.090;6.692;2023-02-15T01:37:21;2.10;99.90
53752;DHT22;41095;53.090;6.692;2023-02-15T01:39:47;2.00;99.90
53752;DHT22;41095;53.090;6.692;2023-02-15T01:42:13;2.00;99.90
53752;DHT22;41095;53.090;6.692;2023-02-15T01:44:54;2.00;99.90
53752;DHT22;41095;53.090;6.692;2023-02-15T01:47:38;1.90;99.90
53752;DHT22;41095;53.090;6.692;2023-02-15T01:50:45;1.80;99.90
53752;DHT22;41095;53.090;6.692;2023-02-15T01:53:34;1.70;99.90
53752;DHT22;41095;53.090;6.692;2023-02-15T01:56:09;1.70;99.90
53752;DHT22;41095;53.090;6.692;2023-02-15T01:58:35;1.60;99.90
53752;DHT22;41095;53.090;6.692;2023-02-15T02:01:02;1.60;99.90
53752;DHT22;41095;53.090;6.692;2023-02-15T02:03:50;1.60;99.90
53752;DHT22;41095;53.090;6.692;2023-02-15T02:06:19;1.80;99.90
53752;DHT22;41095;53.090;6.692;2023-02-15T02:08:46;1.80;99.90
53752;DHT22;41095;53.090;6.692;2023-02-15T02:11:13;1.90;99.90
53752;DHT22;41095;53.090;6.692;2023-02-15T02:13:41;1.90;99.90
53752;DHT22;41095;53.090;6.692;2023-02-15T02:18:39;2.20;99.90
53752;DHT22;41095;53.090;6.692;2023-02-15T02:30:26;1.60;99.90
53752;DHT22;41095;53.090;6.692;2023-02-15T02:33:25;1.50;99.90
53752;DHT22;41095;53.090;6.692;2023-02-15T02:39:03;1.40;99.90
53752;DHT22;41095;53.090;6.692;2023-02-15T02:41:32;1.40;99.90
53752;DHT22;41095;53.090;6.692;2023-02-15T02:46:36;1.40;99.90
53752;DHT22;41095;53.090;6.692;2023-02-15T02:49:02;1.50;99.90
53752;DHT22;41095;53.090;6.692;2023-02-15T02:51:28;1.60;99.90
53752;DHT22;41095;53.090;6.692;2023-02-15T02:53:57;1.60;99.90
53752;DHT22;41095;53.090;6.692;2023-02-15T02:56:46;1.60;99.90
53752;DHT22;41095;53.090;6.692;2023-02-15T02:59:18;2.10;99.90
53752;DHT22;41095;53.090;6.692;2023-02-15T03:01:52;1.50;99.90
53752;DHT22;41095;53.090;6.692;2023-02-15T03:04:24;1.50;99.90
53752;DHT22;41095;53.090;6.692;2023-02-15T03:07:00;1.20;99.90
53752;DHT22;41095;53.090;6.692;2023-02-15T03:09:45;1.20;99.90
53752;DHT22;41095;53.090;6.692;2023-02-15T03:12:17;1.00;99.90
53752;DHT22;41095;53.090;6.692;2023-02-15T03:14:45;1.00;99.90
53752;DHT22;41095;53.090;6.692;2023-02-15T03:17:13;0.90;99.90
53752;DHT22;41095;53.090;6.692;2023-02-15T03:19:40;1.00;99.90
53752;DHT22;41095;53.090;6.692;2023-02-15T03:22:15;1.10;99.90
53752;DHT22;41095;53.090;6.692;2023-02-15T03:27:20;1.20;99.90
53752;DHT22;41095;53.090;6.692;2023-02-15T03:29:52;1.30;99.90
53752;DHT22;41095;53.090;6.692;2023-02-15T03:32:18;1.20;99.90
53752;DHT22;41095;53.090;6.692;2023-02-15T03:34:45;1.20;99.90
53752;DHT22;41095;53.090;6.692;2023-02-15T03:37:25;1.20;99.90
53752;DHT22;41095;53.090;6.692;2023-02-15T03:40:11;1.10;99.90
53752;DHT22;41095;53.090;6.692;2023-02-15T03:45:36;1.10;99.90
53752;DHT22;41095;53.090;6.692;2023-02-15T03:48:05;1.00;99.90
53752;DHT22;41095;53.090;6.692;2023-02-15T03:50:33;1.20;99.90
53752;DHT22;41095;53.090;6.692;2023-02-15T03:53:20;1.00;99.90
53752;DHT22;41095;53.090;6.692;2023-02-15T03:55:49;1.00;99.90
53752;DHT22;41095;53.090;6.692;2023-02-15T03:58:15;1.00;99.90
53752;DHT22;41095;53.090;6.692;2023-02-15T04:01:05;0.90;99.90
53752;DHT22;41095;53.090;6.692;2023-02-15T04:04:01;1.30;99.90
53752;DHT22;41095;53.090;6.692;2023-02-15T04:06:27;0.90;99.90
53752;DHT22;41095;53.090;6.692;2023-02-15T04:08:53;0.90;99.90
53752;DHT22;41095;53.090;6.692;2023-02-15T04:11:37;1.40;99.90
53752;DHT22;41095;53.090;6.692;2023-02-15T04:14:03;1.00;99.90
53752;DHT22;41095;53.090;6.692;2023-02-15T04:16:49;1.00;99.90
53752;DHT22;41095;53.090;6.692;2023-02-15T04:19:15;1.00;99.90
53752;DHT22;41095;53.090;6.692;2023-02-15T04:21:59;1.00;99.90
53752;DHT22;41095;53.090;6.692;2023-02-15T04:24:43;0.80;99.90
53752;DHT22;41095;53.090;6.692;2023-02-15T04:27:27;0.80;99.90
53752;DHT22;41095;53.090;6.692;2023-02-15T04:29:53;0.90;99.90
53752;DHT22;41095;53.090;6.692;2023-02-15T04:32:19;0.90;99.90
53752;DHT22;41095;53.090;6.692;2023-02-15T04:34:44;1.10;99.90
53752;DHT22;41095;53.090;6.692;2023-02-15T04:37:10;0.80;99.90
53752;DHT22;41095;53.090;6.692;2023-02-15T04:39:36;0.70;99.90
53752;DHT22;41095;53.090;6.692;2023-02-15T04:42:02;0.80;99.90
53752;DHT22;41095;53.090;6.692;2023-02-15T04:44:27;0.80;99.90
53752;DHT22;41095;53.090;6.692;2023-02-15T04:46:53;0.80;99.90
53752;DHT22;41095;53.090;6.692;2023-02-15T04:49:20;0.80;99.90
53752;DHT22;41095;53.090;6.692;2023-02-15T04:51:45;0.80;99.90
53752;DHT22;41095;53.090;6.692;2023-02-15T04:54:11;0.80;99.90
53752;DHT22;41095;53.090;6.692;2023-02-15T04:56:37;1.80;99.90
53752;DHT22;41095;53.090;6.692;2023-02-15T04:59:04;0.70;99.90
53752;DHT22;41095;53.090;6.692;2023-02-15T05:01:30;0.60;99.90
53752;DHT22;41095;53.090;6.692;2023-02-15T05:03:56;0.50;99.90
53752;DHT22;41095;53.090;6.692;2023-02-15T05:06:22;0.50;99.90
53752;DHT22;41095;53.090;6.692;2023-02-15T05:08:48;1.00;99.90
53752;DHT22;41095;53.090;6.692;2023-02-15T05:11:13;0.50;99.90
53752;DHT22;41095;53.090;6.692;2023-02-15T05:13:39;1.20;99.90
53752;DHT22;41095;53.090;6.692;2023-02-15T05:16:05;0.70;99.90
53752;DHT22;41095;53.090;6.692;2023-02-15T05:18:30;0.50;99.90
53752;DHT22;41095;53.090;6.692;2023-02-15T05:20:56;0.50;99.90
53752;DHT22;41095;53.090;6.692;2023-02-15T05:23:21;0.60;99.90
53752;DHT22;41095;53.090;6.692;2023-02-15T05:25:49;0.80;99.90
53752;DHT22;41095;53.090;6.692;2023-02-15T05:28:34;0.90;99.90
53752;DHT22;41095;53.090;6.692;2023-02-15T05:31:13;0.90;99.90
53752;DHT22;41095;53.090;6.692;2023-02-15T05:33:40;1.00;99.90
53752;DHT22;41095;53.090;6.692;2023-02-15T05:36:06;1.20;99.90
53752;DHT22;41095;53.090;6.692;2023-02-15T05:38:33;0.70;99.90
53752;DHT22;41095;53.090;6.692;2023-02-15T05:40:59;0.60;99.90
53752;DHT22;41095;53.090;6.692;2023-02-15T05:43:25;0.60;99.90
53752;DHT22;41095;53.090;6.692;2023-02-15T05:45:53;0.50;99.90
53752;DHT22;41095;53.090;6.692;2023-02-15T05:48:20;0.60;99.90
53752;DHT22;41095;53.090;6.692;2023-02-15T05:50:46;1.20;99.90
53752;DHT22;41095;53.090;6.692;2023-02-15T05:53:12;0.50;99.90
53752;DHT22;41095;53.090;6.692;2023-02-15T05:55:40;0.40;99.90
53752;DHT22;41095;53.090;6.692;2023-02-15T05:58:07;0.70;99.90
53752;DHT22;41095;53.090;6.692;2023-02-15T06:00:33;0.40;99.90
53752;DHT22;41095;53.090;6.692;2023-02-15T06:02:59;0.40;99.90
53752;DHT22;41095;53.090;6.692;2023-02-15T06:05:25;0.50;99.90
53752;DHT22;41095;53.090;6.692;2023-02-15T06:07:51;0.60;99.90
53752;DHT22;41095;53.090;6.692;2023-02-15T06:10:16;0.70;99.90
53752;DHT22;41095;53.090;6.692;2023-02-15T06:12:44;0.70;99.90
53752;DHT22;41095;53.090;6.692;2023-02-15T06:15:09;0.80;99.90
53752;DHT22;41095;53.090;6.692;2023-02-15T06:17:35;0.90;99.90
53752;DHT22;41095;53.090;6.692;2023-02-15T06:20:01;1.00;99.90
53752;DHT22;41095;53.090;6.692;2023-02-15T06:22:26;1.10;99.90
53752;DHT22;41095;53.090;6.692;2023-02-15T06:24:52;1.40;99.90
53752;DHT22;41095;53.090;6.692;2023-02-15T06:27:17;1.60;99.90
53752;DHT22;41095;53.090;6.692;2023-02-15T06:29:43;1.20;99.90
53752;DHT22;41095;53.090;6.692;2023-02-15T06:32:09;1.60;99.90
53752;DHT22;41095;53.090;6.692;2023-02-15T06:34:35;1.10;99.90
53752;DHT22;41095;53.090;6.692;2023-02-15T06:37:00;1.00;99.90
53752;DHT22;41095;53.090;6.692;2023-02-15T06:39:26;1.00;99.90
53752;DHT22;41095;53.090;6.692;2023-02-15T06:41:52;1.10;99.90
53752;DHT22;41095;53.090;6.692;2023-02-15T06:44:17;1.00;99.90
53752;DHT22;41095;53.090;6.692;2023-02-15T06:46:43;1.00;99.90
53752;DHT22;41095;53.090;6.692;2023-02-15T06:49:09;1.00;99.90
53752;DHT22;41095;53.090;6.692;2023-02-15T06:51:34;1.00;99.90
53752;DHT22;41095;53.090;6.692;2023-02-15T06:54:00;1.10;99.90
53752;DHT22;41095;53.090;6.692;2023-02-15T06:56:26;1.60;99.90
53752;DHT22;41095;53.090;6.692;2023-02-15T06:58:51;1.20;99.90
53752;DHT22;41095;53.090;6.692;2023-02-15T07:01:18;1.20;99.90
53752;DHT22;41095;53.090;6.692;2023-02-15T07:03:44;1.30;99.90
53752;DHT22;41095;53.090;6.692;2023-02-15T07:06:10;1.40;99.90
53752;DHT22;41095;53.090;6.692;2023-02-15T07:08:38;1.60;99.90
53752;DHT22;41095;53.090;6.692;2023-02-15T07:11:05;1.60;99.90
53752;DHT22;41095;53.090;6.692;2023-02-15T07:13:49;1.60;99.90
53752;DHT22;41095;53.090;6.692;2023-02-15T07:16:15;1.70;99.90
53752;DHT22;41095;53.090;6.692;2023-02-15T07:18:40;2.30;99.90
53752;DHT22;41095;53.090;6.692;2023-02-15T07:21:07;1.70;99.90
53752;DHT22;41095;53.090;6.692;2023-02-15T07:23:37;1.80;99.90
53752;DHT22;41095;53.090;6.692;2023-02-15T07:26:03;2.90;99.90
53752;DHT22;41095;53.090;6.692;2023-02-15T07:28:29;1.90;99.90
53752;DHT22;41095;53.090;6.692;2023-02-15T07:30:55;1.90;99.90
53752;DHT22;41095;53.090;6.692;2023-02-15T07:33:22;2.00;99.90
53752;DHT22;41095;53.090;6.692;2023-02-15T07:35:53;2.00;99.90
53752;DHT22;41095;53.090;6.692;2023-02-15T07:38:20;2.00;99.90
53752;DHT22;41095;53.090;6.692;2023-02-15T07:40:45;2.00;99.90
53752;DHT22;41095;53.090;6.692;2023-02-15T07:43:11;2.00;99.90
53752;DHT22;41095;53.090;6.692;2023-02-15T07:45:38;2.10;99.90
53752;DHT22;41095;53.090;6.692;2023-02-15T07:48:04;2.20;99.90
53752;DHT22;41095;53.090;6.692;2023-02-15T07:50:31;2.30;99.90
53752;DHT22;41095;53.090;6.692;2023-02-15T07:52:57;2.30;99.90
53752;DHT22;41095;53.090;6.692;2023-02-15T07:55:23;2.30;99.90
53752;DHT22;41095;53.090;6.692;2023-02-15T07:57:51;2.30;99.90
53752;DHT22;41095;53.090;6.692;2023-02-15T08:00:18;2.70;99.90
53752;DHT22;41095;53.090;6.692;2023-02-15T08:02:50;2.40;99.90
53752;DHT22;41095;53.090;6.692;2023-02-15T08:05:36;2.40;99.90
53752;DHT22;41095;53.090;6.692;2023-02-15T08:08:02;2.50;99.90
53752;DHT22;41095;53.090;6.692;2023-02-15T08:10:28;2.60;99.90
53752;DHT22;41095;53.090;6.692;2023-02-15T08:13:12;2.70;99.90
53752;DHT22;41095;53.090;6.692;2023-02-15T08:15:37;2.80;99.90
53752;DHT22;41095;53.090;6.692;2023-02-15T08:18:03;2.80;99.90
53752;DHT22;41095;53.090;6.692;2023-02-15T08:20:29;2.90;99.90
53752;DHT22;41095;53.090;6.692;2023-02-15T08:22:54;3.00;99.90
53752;DHT22;41095;53.090;6.692;2023-02-15T08:25:20;3.00;99.90
53752;DHT22;41095;53.090;6.692;2023-02-15T08:27:46;3.10;99.90
53752;DHT22;41095;53.090;6.692;2023-02-15T08:30:12;3.20;99.90
53752;DHT22;41095;53.090;6.692;2023-02-15T08:32:39;3.20;99.90
53752;DHT22;41095;53.090;6.692;2023-02-15T08:35:05;3.30;99.90
53752;DHT22;41095;53.090;6.692;2023-02-15T08:37:31;3.40;99.90
53752;DHT22;41095;53.090;6.692;2023-02-15T08:39:57;3.50;99.90
53752;DHT22;41095;53.090;6.692;2023-02-15T08:42:23;3.60;99.90
53752;DHT22;41095;53.090;6.692;2023-02-15T08:44:48;3.80;99.90
53752;DHT22;41095;53.090;6.692;2023-02-15T08:47:16;3.80;99.90
53752;DHT22;41095;53.090;6.692;2023-02-15T08:49:41;3.90;99.90
53752;DHT22;41095;53.090;6.692;2023-02-15T08:52:07;4.00;99.90
53752;DHT22;41095;53.090;6.692;2023-02-15T08:54:33;4.10;99.90
53752;DHT22;41095;53.090;6.692;2023-02-15T08:56:58;4.20;99.90
53752;DHT22;41095;53.090;6.692;2023-02-15T08:59:25;4.30;99.90
53752;DHT22;41095;53.090;6.692;2023-02-15T09:01:52;4.40;99.90
53752;DHT22;41095;53.090;6.692;2023-02-15T09:04:19;4.50;99.90
53752;DHT22;41095;53.090;6.692;2023-02-15T09:06:47;4.60;99.90
53752;DHT22;41095;53.090;6.692;2023-02-15T09:09:13;4.70;99.90
53752;DHT22;41095;53.090;6.692;2023-02-15T09:11:41;4.70;99.90
53752;DHT22;41095;53.090;6.692;2023-02-15T09:14:13;4.80;99.90
53752;DHT22;41095;53.090;6.692;2023-02-15T09:16:41;4.90;99.90
53752;DHT22;41095;53.090;6.692;2023-02-15T09:19:07;4.90;99.90
53752;DHT22;41095;53.090;6.692;2023-02-15T09:21:36;5.00;99.90
53752;DHT22;41095;53.090;6.692;2023-02-15T09:24:05;5.10;99.90
53752;DHT22;41095;53.090;6.692;2023-02-15T09:26:32;5.10;99.90
53752;DHT22;41095;53.090;6.692;2023-02-15T09:29:00;5.10;99.90
53752;DHT22;41095;53.090;6.692;2023-02-15T09:31:39;5.20;99.90
53752;DHT22;41095;53.090;6.692;2023-02-15T09:34:06;5.20;99.90
53752;DHT22;41095;53.090;6.692;2023-02-15T09:36:34;5.30;99.90
53752;DHT22;41095;53.090;6.692;2023-02-15T09:42:04;5.40;99.90
53752;DHT22;41095;53.090;6.692;2023-02-15T09:47:25;5.60;99.90
53752;DHT22;41095;53.090;6.692;2023-02-15T09:55:48;6.00;99.90
53752;DHT22;41095;53.090;6.692;2023-02-15T10:04:09;6.30;99.90
53752;DHT22;41095;53.090;6.692;2023-02-15T10:07:05;6.50;99.90
53752;DHT22;41095;53.090;6.692;2023-02-15T10:09:39;6.60;99.90
53752;DHT22;41095;53.090;6.692;2023-02-15T10:18:01;7.00;99.90
53752;DHT22;41095;53.090;6.692;2023-02-15T10:28:44;7.50;99.90
53752;DHT22;41095;53.090;6.692;2023-02-15T10:39:33;7.90;99.90
53752;DHT22;41095;53.090;6.692;2023-02-15T10:42:18;7.90;99.90
53752;DHT22;41095;53.090;6.692;2023-02-15T10:44:58;8.00;99.90
53752;DHT22;41095;53.090;6.692;2023-02-15T10:56:31;8.30;99.90
53752;DHT22;41095;53.090;6.692;2023-02-15T11:01:44;8.50;99.90
53752;DHT22;41095;53.090;6.692;2023-02-15T11:07:13;8.70;99.90
53752;DHT22;41095;53.090;6.692;2023-02-15T11:09:56;8.80;99.90
53752;DHT22;41095;53.090;6.692;2023-02-15T11:12:27;8.90;99.90
53752;DHT22;41095;53.090;6.692;2023-02-15T11:17:43;8.90;99.90
53752;DHT22;41095;53.090;6.692;2023-02-15T11:22:48;9.10;99.90
53752;DHT22;41095;53.090;6.692;2023-02-15T11:25:19;9.10;99.90
53752;DHT22;41095;53.090;6.692;2023-02-15T11:27:48;9.20;99.90
53752;DHT22;41095;53.090;6.692;2023-02-15T11:30:21;9.30;99.90
53752;DHT22;41095;53.090;6.692;2023-02-15T11:32:53;9.40;99.90
53752;DHT22;41095;53.090;6.692;2023-02-15T11:38:17;9.60;99.90
53752;DHT22;41095;53.090;6.692;2023-02-15T11:40:49;9.70;99.90
53752;DHT22;41095;53.090;6.692;2023-02-15T11:45:45;9.90;99.90
53752;DHT22;41095;53.090;6.692;2023-02-15T11:48:13;9.90;99.90
53752;DHT22;41095;53.090;6.692;2023-02-15T11:50:40;10.00;99.90
53752;DHT22;41095;53.090;6.692;2023-02-15T11:53:13;10.10;99.90
53752;DHT22;41095;53.090;6.692;2023-02-15T11:55:43;10.20;99.90
53752;DHT22;41095;53.090;6.692;2023-02-15T11:58:29;10.20;99.90
53752;DHT22;41095;53.090;6.692;2023-02-15T12:04:06;10.40;99.90
53752;DHT22;41095;53.090;6.692;2023-02-15T12:06:44;10.40;99.90
53752;DHT22;41095;53.090;6.692;2023-02-15T12:09:25;10.60;99.90
53752;DHT22;41095;53.090;6.692;2023-02-15T12:14:49;10.80;99.90
53752;DHT22;41095;53.090;6.692;2023-02-15T12:17:16;10.80;99.90
53752;DHT22;41095;53.090;6.692;2023-02-15T12:19:43;10.90;99.90
53752;DHT22;41095;53.090;6.692;2023-02-15T12:22:25;11.00;99.90
53752;DHT22;41095;53.090;6.692;2023-02-15T12:25:04;11.00;99.90
53752;DHT22;41095;53.090;6.692;2023-02-15T12:27:43;11.00;99.90
53752;DHT22;41095;53.090;6.692;2023-02-15T12:32:56;10.90;99.90
53752;DHT22;41095;53.090;6.692;2023-02-15T12:35:34;10.90;99.90
53752;DHT22;41095;53.090;6.692;2023-02-15T12:38:21;11.00;99.90
53752;DHT22;41095;53.090;6.692;2023-02-15T12:41:01;11.00;99.90
53752;DHT22;41095;53.090;6.692;2023-02-15T12:43:36;11.10;99.90
53752;DHT22;41095;53.090;6.692;2023-02-15T12:46:22;11.20;99.90
53752;DHT22;41095;53.090;6.692;2023-02-15T12:49:17;11.20;99.90
53752;DHT22;41095;53.090;6.692;2023-02-15T12:51:46;11.20;99.90
53752;DHT22;41095;53.090;6.692;2023-02-15T12:56:49;11.30;99.90
53752;DHT22;41095;53.090;6.692;2023-02-15T12:59:21;11.40;99.90
53752;DHT22;41095;53.090;6.692;2023-02-15T13:01:47;11.50;99.90
53752;DHT22;41095;53.090;6.692;2023-02-15T13:04:23;11.60;99.90
53752;DHT22;41095;53.090;6.692;2023-02-15T13:06:52;11.70;99.90
53752;DHT22;41095;53.090;6.692;2023-02-15T13:12:20;11.80;99.90
53752;DHT22;41095;53.090;6.692;2023-02-15T13:14:48;11.80;99.90
53752;DHT22;41095;53.090;6.692;2023-02-15T13:17:23;11.70;99.90
53752;DHT22;41095;53.090;6.692;2023-02-15T13:19:51;11.70;99.90
53752;DHT22;41095;53.090;6.692;2023-02-15T13:22:40;11.60;99.90
53752;DHT22;41095;53.090;6.692;2023-02-15T13:25:28;11.50;99.90
53752;DHT22;41095;53.090;6.692;2023-02-15T13:28:01;11.60;99.90
53752;DHT22;41095;53.090;6.692;2023-02-15T13:30:31;11.60;99.90
53752;DHT22;41095;53.090;6.692;2023-02-15T13:35:53;11.70;99.90
53752;DHT22;41095;53.090;6.692;2023-02-15T13:43:59;11.80;99.90
53752;DHT22;41095;53.090;6.692;2023-02-15T13:52:42;11.90;99.90
53752;DHT22;41095;53.090;6.692;2023-02-15T13:58:24;11.80;99.90
53752;DHT22;41095;53.090;6.692;2023-02-15T14:01:10;11.70;99.90
53752;DHT22;41095;53.090;6.692;2023-02-15T14:06:49;11.70;99.90
53752;DHT22;41095;53.090;6.692;2023-02-15T14:16:55;11.80;99.90
53752;DHT22;41095;53.090;6.692;2023-02-15T14:19:47;11.70;99.90
53752;DHT22;41095;53.090;6.692;2023-02-15T14:25:25;11.70;99.90
53752;DHT22;41095;53.090;6.692;2023-02-15T14:28:28;11.60;99.90
53752;DHT22;41095;53.090;6.692;2023-02-15T14:30:56;11.60;99.90
53752;DHT22;41095;53.090;6.692;2023-02-15T14:35:54;11.60;99.90
53752;DHT22;41095;53.090;6.692;2023-02-15T14:41:19;11.60;99.90
53752;DHT22;41095;53.090;6.692;2023-02-15T14:46:35;11.50;99.90
53752;DHT22;41095;53.090;6.692;2023-02-15T14:52:03;11.30;99.90
53752;DHT22;41095;53.090;6.692;2023-02-15T15:02:13;11.30;99.90
53752;DHT22;41095;53.090;6.692;2023-02-15T15:07:51;11.20;99.90
53752;DHT22;41095;53.090;6.692;2023-02-15T15:12:56;11.10;99.90
53752;DHT22;41095;53.090;6.692;2023-02-15T15:18:09;11.00;99.90
53752;DHT22;41095;53.090;6.692;2023-02-15T15:20:51;11.00;99.90
53752;DHT22;41095;53.090;6.692;2023-02-15T15:33:42;10.70;99.90
53752;DHT22;41095;53.090;6.692;2023-02-15T15:39:14;10.70;99.90
53752;DHT22;41095;53.090;6.692;2023-02-15T15:47:32;10.60;99.90
53752;DHT22;41095;53.090;6.692;2023-02-15T15:50:00;10.40;99.90
53752;DHT22;41095;53.090;6.692;2023-02-15T15:52:27;10.40;99.90
53752;DHT22;41095;53.090;6.692;2023-02-15T15:54:57;10.30;99.90
53752;DHT22;41095;53.090;6.692;2023-02-15T15:57:37;10.30;99.90
53752;DHT22;41095;53.090;6.692;2023-02-15T16:00:05;10.30;99.90
53752;DHT22;41095;53.090;6.692;2023-02-15T16:02:53;10.30;99.90
53752;DHT22;41095;53.090;6.692;2023-02-15T16:05:20;10.20;99.90
53752;DHT22;41095;53.090;6.692;2023-02-15T16:07:46;10.20;99.90
53752;DHT22;41095;53.090;6.692;2023-02-15T16:10:26;10.10;99.90
53752;DHT22;41095;53.090;6.692;2023-02-15T16:12:53;10.00;99.90
53752;DHT22;41095;53.090;6.692;2023-02-15T16:15:23;10.00;99.90
53752;DHT22;41095;53.090;6.692;2023-02-15T16:17:55;9.90;99.90
53752;DHT22;41095;53.090;6.692;2023-02-15T16:20:33;9.90;99.90
53752;DHT22;41095;53.090;6.692;2023-02-15T16:26:28;9.80;99.90
53752;DHT22;41095;53.090;6.692;2023-02-15T16:28:58;9.70;99.90
53752;DHT22;41095;53.090;6.692;2023-02-15T16:31:24;9.60;99.90
53752;DHT22;41095;53.090;6.692;2023-02-15T16:33:53;9.50;99.90
53752;DHT22;41095;53.090;6.692;2023-02-15T16:36:26;9.50;99.90
53752;DHT22;41095;53.090;6.692;2023-02-15T16:41:29;9.40;99.90
53752;DHT22;41095;53.090;6.692;2023-02-15T16:43:58;9.40;99.90
53752;DHT22;41095;53.090;6.692;2023-02-15T16:46:37;9.30;99.90
53752;DHT22;41095;53.090;6.692;2023-02-15T16:49:07;9.30;99.90
53752;DHT22;41095;53.090;6.692;2023-02-15T16:51:37;9.10;99.90
53752;DHT22;41095;53.090;6.692;2023-02-15T16:54:07;9.10;99.90
53752;DHT22;41095;53.090;6.692;2023-02-15T16:56:34;9.00;99.90
53752;DHT22;41095;53.090;6.692;2023-02-15T16:59:02;9.00;99.90
53752;DHT22;41095;53.090;6.692;2023-02-15T17:01:31;9.00;99.90
53752;DHT22;41095;53.090;6.692;2023-02-15T17:07:18;8.90;99.90
53752;DHT22;41095;53.090;6.692;2023-02-15T17:09:56;8.90;99.90
53752;DHT22;41095;53.090;6.692;2023-02-15T17:12:55;8.80;99.90
53752;DHT22;41095;53.090;6.692;2023-02-15T17:15:32;8.70;99.90
53752;DHT22;41095;53.090;6.692;2023-02-15T17:18:01;8.60;99.90
53752;DHT22;41095;53.090;6.692;2023-02-15T17:20:28;8.50;99.90
53752;DHT22;41095;53.090;6.692;2023-02-15T17:22:54;8.40;99.90
53752;DHT22;41095;53.090;6.692;2023-02-15T17:25:29;8.40;99.90
53752;DHT22;41095;53.090;6.692;2023-02-15T17:27:57;8.40;99.90
53752;DHT22;41095;53.090;6.692;2023-02-15T17:30:28;8.40;99.90
53752;DHT22;41095;53.090;6.692;2023-02-15T17:32:58;8.40;99.90
53752;DHT22;41095;53.090;6.692;2023-02-15T17:35:26;8.40;99.90
53752;DHT22;41095;53.090;6.692;2023-02-15T17:38:16;8.30;99.90
53752;DHT22;41095;53.090;6.692;2023-02-15T17:40:42;8.20;99.90
53752;DHT22;41095;53.090;6.692;2023-02-15T17:43:07;8.10;99.90
53752;DHT22;41095;53.090;6.692;2023-02-15T17:45:44;8.10;99.90
53752;DHT22;41095;53.090;6.692;2023-02-15T17:48:33;8.00;99.90
53752;DHT22;41095;53.090;6.692;2023-02-15T17:51:04;8.00;99.90
53752;DHT22;41095;53.090;6.692;2023-02-15T17:53:31;8.00;99.90
53752;DHT22;41095;53.090;6.692;2023-02-15T17:55:56;8.00;99.90
53752;DHT22;41095;53.090;6.692;2023-02-15T17:58:22;8.00;99.90
53752;DHT22;41095;53.090;6.692;2023-02-15T18:00:51;8.10;99.90
53752;DHT22;41095;53.090;6.692;2023-02-15T18:06:25;8.00;99.90
53752;DHT22;41095;53.090;6.692;2023-02-15T18:09:19;7.90;99.90
53752;DHT22;41095;53.090;6.692;2023-02-15T18:14:50;7.70;99.90
53752;DHT22;41095;53.090;6.692;2023-02-15T18:17:17;7.70;99.90
53752;DHT22;41095;53.090;6.692;2023-02-15T18:19:44;7.70;99.90
53752;DHT22;41095;53.090;6.692;2023-02-15T18:22:12;7.70;99.90
53752;DHT22;41095;53.090;6.692;2023-02-15T18:24:38;7.70;99.90
53752;DHT22;41095;53.090;6.692;2023-02-15T18:27:05;7.70;99.90
53752;DHT22;41095;53.090;6.692;2023-02-15T18:29:31;7.70;99.90
53752;DHT22;41095;53.090;6.692;2023-02-15T18:31:57;7.70;99.90
53752;DHT22;41095;53.090;6.692;2023-02-15T18:34:36;7.60;99.90
53752;DHT22;41095;53.090;6.692;2023-02-15T18:37:04;7.60;99.90
53752;DHT22;41095;53.090;6.692;2023-02-15T18:39:46;7.60;99.90
53752;DHT22;41095;53.090;6.692;2023-02-15T18:42:20;7.50;99.90
53752;DHT22;41095;53.090;6.692;2023-02-15T18:44:46;7.50;99.90
53752;DHT22;41095;53.090;6.692;2023-02-15T18:47:12;7.50;99.90
53752;DHT22;41095;53.090;6.692;2023-02-15T18:49:37;7.40;99.90
53752;DHT22;41095;53.090;6.692;2023-02-15T18:52:03;7.40;99.90
53752;DHT22;41095;53.090;6.692;2023-02-15T18:54:29;7.30;99.90
53752;DHT22;41095;53.090;6.692;2023-02-15T18:56:57;7.40;99.90
53752;DHT22;41095;53.090;6.692;2023-02-15T18:59:24;7.40;99.90
53752;DHT22;41095;53.090;6.692;2023-02-15T19:01:51;7.40;99.90
53752;DHT22;41095;53.090;6.692;2023-02-15T19:04:17;7.40;99.90
53752;DHT22;41095;53.090;6.692;2023-02-15T19:06:45;7.40;99.90
53752;DHT22;41095;53.090;6.692;2023-02-15T19:09:14;7.40;99.90
53752;DHT22;41095;53.090;6.692;2023-02-15T19:11:49;7.30;99.90
53752;DHT22;41095;53.090;6.692;2023-02-15T19:14:29;7.30;99.90
53752;DHT22;41095;53.090;6.692;2023-02-15T19:16:57;7.30;99.90
53752;DHT22;41095;53.090;6.692;2023-02-15T19:19:23;7.30;99.90